sensor_id;sensor_type;location;lat;lon;timestamp;P1;durP1;ratioP1;P2;durP2;ratioP2
48578;SDS011;34357;51.948;6.132;2023-07-24T00:01:17;5.55;;;5.03;;
48578;SDS011;34357;51.948;6.132;2023-07-24T00:03:43;6.28;;;5.53;;
48578;SDS011;34357;51.948;6.132;2023-07-24T00:06:16;7.22;;;5.78;;
48578;SDS011;34357;51.948;6.132;2023-07-24T00:08:42;9.40;;;5.40;;
48578;SDS011;34357;51.948;6.132;2023-07-24T00:11:07;5.65;;;5.00;;
48578;SDS011;34357;51.948;6.132;2023-07-24T00:13:33;5.63;;;5.10;;
48578;SDS011;34357;51.948;6.132;2023-07-24T00:15:59;6.30;;;5.57;;
48578;SDS011;34357;51.948;6.132;2023-07-24T00:18:25;6.55;;;4.72;;
48578;SDS011;34357;51.948;6.132;2023-07-24T00:20:50;8.48;;;5.03;;
48578;SDS011;34357;51.948;6.132;2023-07-24T00:23:16;7.60;;;4.72;;
48578;SDS011;34357;51.948;6.132;2023-07-24T00:25:42;5.28;;;4.68;;
48578;SDS011;34357;51.948;6.132;2023-07-24T00:28:07;5.93;;;4.40;;
48578;SDS011;34357;51.948;6.132;2023-07-24T00:30:33;4.90;;;4.40;;
48578;SDS011;34357;51.948;6.132;2023-07-24T00:32:59;5.22;;;4.30;;
48578;SDS011;34357;51.948;6.132;2023-07-24T00:35:25;8.15;;;4.13;;
48578;SDS011;34357;51.948;6.132;2023-07-24T00:37:51;5.75;;;4.45;;
48578;SDS011;34357;51.948;6.132;2023-07-24T00:40:17;5.40;;;4.30;;
48578;SDS011;34357;51.948;6.132;2023-07-24T00:42:47;4.88;;;4.25;;
48578;SDS011;34357;51.948;6.132;2023-07-24T00:45:13;5.18;;;4.65;;
48578;SDS011;34357;51.948;6.132;2023-07-24T00:47:40;7.65;;;4.88;;
48578;SDS011;34357;51.948;6.132;2023-07-24T00:50:07;5.30;;;4.78;;
48578;SDS011;34357;51.948;6.132;2023-07-24T00:52:34;5.22;;;4.72;;
48578;SDS011;34357;51.948;6.132;2023-07-24T00:55:00;7.68;;;5.05;;
48578;SDS011;34357;51.948;6.132;2023-07-24T00:57:26;7.68;;;4.97;;
48578;SDS011;34357;51.948;6.132;2023-07-24T00:59:51;6.95;;;4.75;;
48578;SDS011;34357;51.948;6.132;2023-07-24T01:02:17;6.00;;;5.00;;
48578;SDS011;34357;51.948;6.132;2023-07-24T01:04:43;6.93;;;5.28;;
48578;SDS011;34357;51.948;6.132;2023-07-24T01:07:09;7.13;;;5.38;;
48578;SDS011;34357;51.948;6.132;2023-07-24T01:09:35;11.30;;;5.38;;
48578;SDS011;34357;51.948;6.132;2023-07-24T01:12:05;7.72;;;5.25;;
48578;SDS011;34357;51.948;6.132;2023-07-24T01:14:42;6.07;;;5.38;;
48578;SDS011;34357;51.948;6.132;2023-07-24T01:17:17;6.93;;;5.93;;
48578;SDS011;34357;51.948;6.132;2023-07-24T01:19:52;7.78;;;6.45;;
48578;SDS011;34357;51.948;6.132;2023-07-24T01:22:25;7.82;;;5.63;;
48578;SDS011;34357;51.948;6.132;2023-07-24T01:25:09;7.05;;;5.53;;
48578;SDS011;34357;51.948;6.132;2023-07-24T01:27:44;7.40;;;5.43;;
48578;SDS011;34357;51.948;6.132;2023-07-24T01:30:11;9.85;;;5.45;;
48578;SDS011;34357;51.948;6.132;2023-07-24T01:32:38;7.18;;;5.38;;
48578;SDS011;34357;51.948;6.132;2023-07-24T01:35:04;7.50;;;5.95;;
48578;SDS011;34357;51.948;6.132;2023-07-24T01:37:31;7.15;;;5.75;;
48578;SDS011;34357;51.948;6.132;2023-07-24T01:39:58;9.32;;;6.75;;
48578;SDS011;34357;51.948;6.132;2023-07-24T01:42:25;9.82;;;6.72;;
48578;SDS011;34357;51.948;6.132;2023-07-24T01:44:52;10.98;;;6.20;;
48578;SDS011;34357;51.948;6.132;2023-07-24T01:47:18;8.05;;;6.00;;
48578;SDS011;34357;51.948;6.132;2023-07-24T01:49:44;8.52;;;6.35;;
48578;SDS011;34357;51.948;6.132;2023-07-24T01:52:09;11.15;;;7.07;;
48578;SDS011;34357;51.948;6.132;2023-07-24T01:54:35;9.50;;;7.13;;
48578;SDS011;34357;51.948;6.132;2023-07-24T01:57:01;10.23;;;6.80;;
48578;SDS011;34357;51.948;6.132;2023-07-24T01:59:26;10.02;;;6.82;;
48578;SDS011;34357;51.948;6.132;2023-07-24T02:01:52;9.07;;;7.72;;
48578;SDS011;34357;51.948;6.132;2023-07-24T02:04:18;10.80;;;7.13;;
48578;SDS011;34357;51.948;6.132;2023-07-24T02:06:51;11.98;;;7.50;;
48578;SDS011;34357;51.948;6.132;2023-07-24T02:09:20;7.57;;;6.80;;
48578;SDS011;34357;51.948;6.132;2023-07-24T02:11:46;8.75;;;7.43;;
48578;SDS011;34357;51.948;6.132;2023-07-24T02:14:12;9.15;;;7.40;;
48578;SDS011;34357;51.948;6.132;2023-07-24T02:16:39;10.68;;;7.20;;
48578;SDS011;34357;51.948;6.132;2023-07-24T02:19:05;9.18;;;6.00;;
48578;SDS011;34357;51.948;6.132;2023-07-24T02:21:32;11.15;;;5.93;;
48578;SDS011;34357;51.948;6.132;2023-07-24T02:23:57;7.85;;;5.70;;
48578;SDS011;34357;51.948;6.132;2023-07-24T02:26:23;6.93;;;5.53;;
48578;SDS011;34357;51.948;6.132;2023-07-24T02:28:49;8.38;;;5.55;;
48578;SDS011;34357;51.948;6.132;2023-07-24T02:31:15;9.40;;;6.18;;
48578;SDS011;34357;51.948;6.132;2023-07-24T02:33:41;8.82;;;6.45;;
48578;SDS011;34357;51.948;6.132;2023-07-24T02:36:07;8.88;;;6.22;;
48578;SDS011;34357;51.948;6.132;2023-07-24T02:38:33;11.35;;;6.85;;
48578;SDS011;34357;51.948;6.132;2023-07-24T02:40:58;9.45;;;6.15;;
48578;SDS011;34357;51.948;6.132;2023-07-24T02:43:24;9.38;;;5.93;;
48578;SDS011;34357;51.948;6.132;2023-07-24T02:45:50;8.77;;;7.00;;
48578;SDS011;34357;51.948;6.132;2023-07-24T02:48:16;9.00;;;6.68;;
48578;SDS011;34357;51.948;6.132;2023-07-24T02:50:41;11.15;;;6.82;;
48578;SDS011;34357;51.948;6.132;2023-07-24T02:53:07;9.52;;;6.57;;
48578;SDS011;34357;51.948;6.132;2023-07-24T02:55:33;8.95;;;6.03;;
48578;SDS011;34357;51.948;6.132;2023-07-24T02:57:58;11.52;;;6.75;;
48578;SDS011;34357;51.948;6.132;2023-07-24T03:00:24;10.48;;;7.10;;
48578;SDS011;34357;51.948;6.132;2023-07-24T03:02:50;10.30;;;7.13;;
48578;SDS011;34357;51.948;6.132;2023-07-24T03:05:17;10.27;;;6.78;;
48578;SDS011;34357;51.948;6.132;2023-07-24T03:07:43;9.57;;;6.90;;
48578;SDS011;34357;51.948;6.132;2023-07-24T03:10:09;12.10;;;7.38;;
48578;SDS011;34357;51.948;6.132;2023-07-24T03:12:35;12.35;;;7.95;;
48578;SDS011;34357;51.948;6.132;2023-07-24T03:15:01;11.32;;;8.00;;
48578;SDS011;34357;51.948;6.132;2023-07-24T03:17:27;12.38;;;7.80;;
48578;SDS011;34357;51.948;6.132;2023-07-24T03:19:54;15.25;;;9.60;;
48578;SDS011;34357;51.948;6.132;2023-07-24T03:22:20;12.48;;;8.05;;
48578;SDS011;34357;51.948;6.132;2023-07-24T03:24:46;16.05;;;9.57;;
48578;SDS011;34357;51.948;6.132;2023-07-24T03:27:11;13.73;;;9.48;;
48578;SDS011;34357;51.948;6.132;2023-07-24T03:29:38;14.07;;;8.88;;
48578;SDS011;34357;51.948;6.132;2023-07-24T03:32:06;12.15;;;8.23;;
48578;SDS011;34357;51.948;6.132;2023-07-24T03:34:32;15.38;;;9.93;;
48578;SDS011;34357;51.948;6.132;2023-07-24T03:36:58;14.18;;;9.20;;
48578;SDS011;34357;51.948;6.132;2023-07-24T03:39:23;17.42;;;9.93;;
48578;SDS011;34357;51.948;6.132;2023-07-24T03:41:50;19.02;;;10.90;;
48578;SDS011;34357;51.948;6.132;2023-07-24T03:44:16;14.73;;;10.40;;
48578;SDS011;34357;51.948;6.132;2023-07-24T03:46:42;14.73;;;9.95;;
48578;SDS011;34357;51.948;6.132;2023-07-24T03:49:07;14.75;;;10.13;;
48578;SDS011;34357;51.948;6.132;2023-07-24T03:51:33;14.55;;;9.65;;
48578;SDS011;34357;51.948;6.132;2023-07-24T03:53:59;15.35;;;10.00;;
48578;SDS011;34357;51.948;6.132;2023-07-24T03:56:24;14.25;;;9.57;;
48578;SDS011;34357;51.948;6.132;2023-07-24T03:58:50;13.68;;;9.88;;
48578;SDS011;34357;51.948;6.132;2023-07-24T04:01:17;17.13;;;9.52;;
48578;SDS011;34357;51.948;6.132;2023-07-24T04:03:43;13.65;;;8.68;;
48578;SDS011;34357;51.948;6.132;2023-07-24T04:06:08;14.02;;;8.10;;
48578;SDS011;34357;51.948;6.132;2023-07-24T04:08:34;9.48;;;6.70;;
48578;SDS011;34357;51.948;6.132;2023-07-24T04:11:00;9.95;;;5.82;;
48578;SDS011;34357;51.948;6.132;2023-07-24T04:13:26;8.93;;;6.18;;
48578;SDS011;34357;51.948;6.132;2023-07-24T04:15:51;10.75;;;6.78;;
48578;SDS011;34357;51.948;6.132;2023-07-24T04:18:17;9.05;;;5.85;;
48578;SDS011;34357;51.948;6.132;2023-07-24T04:20:43;8.05;;;5.70;;
48578;SDS011;34357;51.948;6.132;2023-07-24T04:23:08;7.63;;;4.63;;
48578;SDS011;34357;51.948;6.132;2023-07-24T04:25:34;5.25;;;4.63;;
48578;SDS011;34357;51.948;6.132;2023-07-24T04:28:00;6.22;;;4.97;;
48578;SDS011;34357;51.948;6.132;2023-07-24T04:30:25;5.47;;;4.78;;
48578;SDS011;34357;51.948;6.132;2023-07-24T04:32:51;5.53;;;4.60;;
48578;SDS011;34357;51.948;6.132;2023-07-24T04:35:17;6.40;;;4.57;;
48578;SDS011;34357;51.948;6.132;2023-07-24T04:37:42;6.90;;;4.65;;
48578;SDS011;34357;51.948;6.132;2023-07-24T04:40:08;8.65;;;5.90;;
48578;SDS011;34357;51.948;6.132;2023-07-24T04:42:35;6.78;;;5.43;;
48578;SDS011;34357;51.948;6.132;2023-07-24T04:45:01;9.02;;;6.40;;
48578;SDS011;34357;51.948;6.132;2023-07-24T04:47:26;7.55;;;6.40;;
48578;SDS011;34357;51.948;6.132;2023-07-24T04:49:52;7.05;;;5.93;;
48578;SDS011;34357;51.948;6.132;2023-07-24T04:52:18;7.75;;;5.80;;
48578;SDS011;34357;51.948;6.132;2023-07-24T04:54:44;8.57;;;5.97;;
48578;SDS011;34357;51.948;6.132;2023-07-24T04:57:09;7.28;;;6.07;;
48578;SDS011;34357;51.948;6.132;2023-07-24T04:59:36;8.48;;;5.95;;
48578;SDS011;34357;51.948;6.132;2023-07-24T05:02:01;7.50;;;5.88;;
48578;SDS011;34357;51.948;6.132;2023-07-24T05:04:27;7.93;;;6.10;;
48578;SDS011;34357;51.948;6.132;2023-07-24T05:06:53;8.13;;;5.80;;
48578;SDS011;34357;51.948;6.132;2023-07-24T05:09:18;9.68;;;6.03;;
48578;SDS011;34357;51.948;6.132;2023-07-24T05:11:44;8.20;;;5.60;;
48578;SDS011;34357;51.948;6.132;2023-07-24T05:14:10;7.25;;;6.18;;
48578;SDS011;34357;51.948;6.132;2023-07-24T05:16:36;7.65;;;5.63;;
48578;SDS011;34357;51.948;6.132;2023-07-24T05:19:02;9.38;;;5.68;;
48578;SDS011;34357;51.948;6.132;2023-07-24T05:21:27;7.55;;;6.30;;
48578;SDS011;34357;51.948;6.132;2023-07-24T05:23:53;8.43;;;6.47;;
48578;SDS011;34357;51.948;6.132;2023-07-24T05:26:19;8.18;;;6.18;;
48578;SDS011;34357;51.948;6.132;2023-07-24T05:28:47;10.98;;;6.50;;
48578;SDS011;34357;51.948;6.132;2023-07-24T05:31:12;6.32;;;5.40;;
48578;SDS011;34357;51.948;6.132;2023-07-24T05:33:38;10.23;;;6.10;;
48578;SDS011;34357;51.948;6.132;2023-07-24T05:36:04;7.85;;;6.43;;
48578;SDS011;34357;51.948;6.132;2023-07-24T05:38:30;6.45;;;5.80;;
48578;SDS011;34357;51.948;6.132;2023-07-24T05:40:56;8.57;;;6.15;;
48578;SDS011;34357;51.948;6.132;2023-07-24T05:43:23;8.43;;;6.13;;
48578;SDS011;34357;51.948;6.132;2023-07-24T05:45:52;9.00;;;5.93;;
48578;SDS011;34357;51.948;6.132;2023-07-24T05:48:18;9.77;;;6.65;;
48578;SDS011;34357;51.948;6.132;2023-07-24T05:50:44;7.88;;;6.60;;
48578;SDS011;34357;51.948;6.132;2023-07-24T05:53:10;10.18;;;7.07;;
48578;SDS011;34357;51.948;6.132;2023-07-24T05:55:36;9.90;;;7.20;;
48578;SDS011;34357;51.948;6.132;2023-07-24T05:58:02;10.38;;;7.65;;
48578;SDS011;34357;51.948;6.132;2023-07-24T06:00:28;10.30;;;7.95;;
48578;SDS011;34357;51.948;6.132;2023-07-24T06:02:53;9.80;;;8.10;;
48578;SDS011;34357;51.948;6.132;2023-07-24T06:05:19;10.70;;;9.27;;
48578;SDS011;34357;51.948;6.132;2023-07-24T06:07:45;11.32;;;8.60;;
48578;SDS011;34357;51.948;6.132;2023-07-24T06:10:12;12.45;;;9.05;;
48578;SDS011;34357;51.948;6.132;2023-07-24T06:12:38;10.45;;;9.35;;
48578;SDS011;34357;51.948;6.132;2023-07-24T06:15:04;14.05;;;9.63;;
48578;SDS011;34357;51.948;6.132;2023-07-24T06:17:30;14.45;;;10.10;;
48578;SDS011;34357;51.948;6.132;2023-07-24T06:19:56;14.88;;;11.90;;
48578;SDS011;34357;51.948;6.132;2023-07-24T06:22:22;13.45;;;12.13;;
48578;SDS011;34357;51.948;6.132;2023-07-24T06:24:48;15.32;;;11.55;;
48578;SDS011;34357;51.948;6.132;2023-07-24T06:27:14;16.77;;;12.45;;
48578;SDS011;34357;51.948;6.132;2023-07-24T06:29:40;12.55;;;11.13;;
48578;SDS011;34357;51.948;6.132;2023-07-24T06:32:06;13.57;;;11.27;;
48578;SDS011;34357;51.948;6.132;2023-07-24T06:34:33;13.65;;;11.32;;
48578;SDS011;34357;51.948;6.132;2023-07-24T06:36:59;16.17;;;11.77;;
48578;SDS011;34357;51.948;6.132;2023-07-24T06:39:24;14.35;;;12.38;;
48578;SDS011;34357;51.948;6.132;2023-07-24T06:41:54;13.25;;;11.55;;
48578;SDS011;34357;51.948;6.132;2023-07-24T06:44:20;13.07;;;11.52;;
48578;SDS011;34357;51.948;6.132;2023-07-24T06:46:46;13.20;;;11.77;;
48578;SDS011;34357;51.948;6.132;2023-07-24T06:49:12;15.07;;;12.27;;
48578;SDS011;34357;51.948;6.132;2023-07-24T06:51:37;14.25;;;12.02;;
48578;SDS011;34357;51.948;6.132;2023-07-24T06:54:06;12.23;;;11.00;;
48578;SDS011;34357;51.948;6.132;2023-07-24T06:56:32;13.00;;;11.68;;
48578;SDS011;34357;51.948;6.132;2023-07-24T06:58:58;13.73;;;11.80;;
48578;SDS011;34357;51.948;6.132;2023-07-24T07:01:23;14.25;;;11.88;;
48578;SDS011;34357;51.948;6.132;2023-07-24T07:03:49;13.60;;;11.32;;
48578;SDS011;34357;51.948;6.132;2023-07-24T07:06:15;14.48;;;12.20;;
48578;SDS011;34357;51.948;6.132;2023-07-24T07:08:41;11.90;;;10.68;;
48578;SDS011;34357;51.948;6.132;2023-07-24T07:11:07;13.52;;;12.10;;
48578;SDS011;34357;51.948;6.132;2023-07-24T07:13:32;12.93;;;11.60;;
48578;SDS011;34357;51.948;6.132;2023-07-24T07:15:58;14.27;;;12.52;;
48578;SDS011;34357;51.948;6.132;2023-07-24T07:18:24;14.60;;;11.07;;
48578;SDS011;34357;51.948;6.132;2023-07-24T07:20:51;12.50;;;11.20;;
48578;SDS011;34357;51.948;6.132;2023-07-24T07:23:18;12.75;;;10.43;;
48578;SDS011;34357;51.948;6.132;2023-07-24T07:25:44;13.60;;;11.25;;
48578;SDS011;34357;51.948;6.132;2023-07-24T07:28:12;13.38;;;11.98;;
48578;SDS011;34357;51.948;6.132;2023-07-24T07:30:40;14.52;;;12.13;;
48578;SDS011;34357;51.948;6.132;2023-07-24T07:33:06;13.93;;;11.38;;
48578;SDS011;34357;51.948;6.132;2023-07-24T07:35:32;14.52;;;11.85;;
48578;SDS011;34357;51.948;6.132;2023-07-24T07:37:58;13.75;;;11.48;;
48578;SDS011;34357;51.948;6.132;2023-07-24T07:40:24;16.58;;;10.20;;
48578;SDS011;34357;51.948;6.132;2023-07-24T07:42:55;13.05;;;10.63;;
48578;SDS011;34357;51.948;6.132;2023-07-24T07:45:22;15.20;;;11.18;;
48578;SDS011;34357;51.948;6.132;2023-07-24T07:47:48;14.75;;;11.77;;
48578;SDS011;34357;51.948;6.132;2023-07-24T07:50:14;13.35;;;10.32;;
48578;SDS011;34357;51.948;6.132;2023-07-24T07:52:40;14.25;;;10.98;;
48578;SDS011;34357;51.948;6.132;2023-07-24T07:55:06;15.13;;;11.95;;
48578;SDS011;34357;51.948;6.132;2023-07-24T07:57:35;13.40;;;11.40;;
48578;SDS011;34357;51.948;6.132;2023-07-24T08:00:02;15.93;;;13.10;;
48578;SDS011;34357;51.948;6.132;2023-07-24T08:02:30;19.20;;;14.45;;
48578;SDS011;34357;51.948;6.132;2023-07-24T08:04:57;18.23;;;13.68;;
48578;SDS011;34357;51.948;6.132;2023-07-24T08:07:23;16.23;;;14.52;;
48578;SDS011;34357;51.948;6.132;2023-07-24T08:09:48;21.13;;;14.52;;
48578;SDS011;34357;51.948;6.132;2023-07-24T08:12:14;18.90;;;15.02;;
48578;SDS011;34357;51.948;6.132;2023-07-24T08:14:40;15.95;;;14.30;;
48578;SDS011;34357;51.948;6.132;2023-07-24T08:17:06;17.10;;;14.25;;
48578;SDS011;34357;51.948;6.132;2023-07-24T08:19:31;16.90;;;13.60;;
48578;SDS011;34357;51.948;6.132;2023-07-24T08:21:57;15.90;;;13.70;;
48578;SDS011;34357;51.948;6.132;2023-07-24T08:24:23;16.33;;;14.15;;
48578;SDS011;34357;51.948;6.132;2023-07-24T08:26:49;15.20;;;13.60;;
48578;SDS011;34357;51.948;6.132;2023-07-24T08:29:14;16.77;;;14.50;;
48578;SDS011;34357;51.948;6.132;2023-07-24T08:31:40;19.50;;;15.40;;
48578;SDS011;34357;51.948;6.132;2023-07-24T08:34:06;19.02;;;15.73;;
48578;SDS011;34357;51.948;6.132;2023-07-24T08:36:32;19.70;;;16.48;;
48578;SDS011;34357;51.948;6.132;2023-07-24T08:38:57;18.60;;;16.30;;
48578;SDS011;34357;51.948;6.132;2023-07-24T08:41:23;22.67;;;16.13;;
48578;SDS011;34357;51.948;6.132;2023-07-24T08:43:49;22.63;;;16.05;;
48578;SDS011;34357;51.948;6.132;2023-07-24T08:46:17;23.75;;;16.30;;
48578;SDS011;34357;51.948;6.132;2023-07-24T08:48:44;22.45;;;16.83;;
48578;SDS011;34357;51.948;6.132;2023-07-24T08:51:11;20.05;;;16.35;;
48578;SDS011;34357;51.948;6.132;2023-07-24T08:53:38;19.73;;;15.95;;
48578;SDS011;34357;51.948;6.132;2023-07-24T08:56:10;20.38;;;15.90;;
48578;SDS011;34357;51.948;6.132;2023-07-24T08:58:40;19.33;;;15.82;;
48578;SDS011;34357;51.948;6.132;2023-07-24T09:01:07;14.68;;;13.18;;
48578;SDS011;34357;51.948;6.132;2023-07-24T09:03:36;16.75;;;13.90;;
48578;SDS011;34357;51.948;6.132;2023-07-24T09:06:02;15.68;;;13.27;;
48578;SDS011;34357;51.948;6.132;2023-07-24T09:08:38;14.95;;;13.27;;
48578;SDS011;34357;51.948;6.132;2023-07-24T09:11:06;13.77;;;11.80;;
48578;SDS011;34357;51.948;6.132;2023-07-24T09:13:34;12.70;;;10.32;;
48578;SDS011;34357;51.948;6.132;2023-07-24T09:16:01;11.43;;;9.20;;
48578;SDS011;34357;51.948;6.132;2023-07-24T09:18:27;12.57;;;8.57;;
48578;SDS011;34357;51.948;6.132;2023-07-24T09:21:07;9.48;;;8.48;;
48578;SDS011;34357;51.948;6.132;2023-07-24T09:23:34;12.00;;;7.97;;
48578;SDS011;34357;51.948;6.132;2023-07-24T09:26:04;8.85;;;7.90;;
48578;SDS011;34357;51.948;6.132;2023-07-24T09:28:31;10.38;;;8.07;;
48578;SDS011;34357;51.948;6.132;2023-07-24T09:30:59;9.63;;;7.95;;
48578;SDS011;34357;51.948;6.132;2023-07-24T09:33:35;9.43;;;7.65;;
48578;SDS011;34357;51.948;6.132;2023-07-24T09:36:08;11.35;;;7.82;;
48578;SDS011;34357;51.948;6.132;2023-07-24T09:38:36;8.68;;;7.57;;
48578;SDS011;34357;51.948;6.132;2023-07-24T09:41:03;8.80;;;7.90;;
48578;SDS011;34357;51.948;6.132;2023-07-24T09:43:29;9.50;;;7.50;;
48578;SDS011;34357;51.948;6.132;2023-07-24T09:45:56;10.50;;;7.22;;
48578;SDS011;34357;51.948;6.132;2023-07-24T09:48:23;8.48;;;7.00;;
48578;SDS011;34357;51.948;6.132;2023-07-24T09:50:54;10.85;;;7.10;;
48578;SDS011;34357;51.948;6.132;2023-07-24T09:56:01;8.75;;;7.13;;
48578;SDS011;34357;51.948;6.132;2023-07-24T09:58:30;8.98;;;7.47;;
48578;SDS011;34357;51.948;6.132;2023-07-24T10:00:58;8.43;;;6.45;;
48578;SDS011;34357;51.948;6.132;2023-07-24T10:03:25;7.30;;;6.60;;
48578;SDS011;34357;51.948;6.132;2023-07-24T10:05:52;9.43;;;7.03;;
48578;SDS011;34357;51.948;6.132;2023-07-24T10:08:18;8.43;;;6.60;;
48578;SDS011;34357;51.948;6.132;2023-07-24T10:10:45;8.20;;;7.00;;
48578;SDS011;34357;51.948;6.132;2023-07-24T10:13:11;8.02;;;7.22;;
48578;SDS011;34357;51.948;6.132;2023-07-24T10:15:42;10.77;;;7.90;;
48578;SDS011;34357;51.948;6.132;2023-07-24T10:18:10;8.80;;;7.43;;
48578;SDS011;34357;51.948;6.132;2023-07-24T10:20:40;12.20;;;7.95;;
48578;SDS011;34357;51.948;6.132;2023-07-24T10:23:07;8.07;;;7.28;;
48578;SDS011;34357;51.948;6.132;2023-07-24T10:25:35;13.20;;;7.95;;
48578;SDS011;34357;51.948;6.132;2023-07-24T10:30:39;10.02;;;7.75;;
48578;SDS011;34357;51.948;6.132;2023-07-24T10:35:46;8.93;;;7.00;;
48578;SDS011;34357;51.948;6.132;2023-07-24T10:38:15;10.50;;;7.95;;
48578;SDS011;34357;51.948;6.132;2023-07-24T10:40:42;9.30;;;7.50;;
48578;SDS011;34357;51.948;6.132;2023-07-24T10:43:10;10.30;;;7.68;;
48578;SDS011;34357;51.948;6.132;2023-07-24T10:45:38;8.02;;;7.22;;
48578;SDS011;34357;51.948;6.132;2023-07-24T10:48:05;8.52;;;6.95;;
48578;SDS011;34357;51.948;6.132;2023-07-24T10:50:40;9.15;;;7.22;;
48578;SDS011;34357;51.948;6.132;2023-07-24T10:53:10;9.77;;;7.47;;
48578;SDS011;34357;51.948;6.132;2023-07-24T10:55:40;12.07;;;7.43;;
48578;SDS011;34357;51.948;6.132;2023-07-24T10:58:07;10.75;;;7.00;;
48578;SDS011;34357;51.948;6.132;2023-07-24T11:00:33;14.63;;;7.70;;
48578;SDS011;34357;51.948;6.132;2023-07-24T11:02:59;13.15;;;7.30;;
48578;SDS011;34357;51.948;6.132;2023-07-24T11:05:25;8.02;;;7.13;;
48578;SDS011;34357;51.948;6.132;2023-07-24T11:07:51;14.82;;;8.18;;
48578;SDS011;34357;51.948;6.132;2023-07-24T11:10:17;10.43;;;7.72;;
48578;SDS011;34357;51.948;6.132;2023-07-24T11:12:44;9.60;;;7.80;;
48578;SDS011;34357;51.948;6.132;2023-07-24T11:15:10;10.00;;;7.85;;
48578;SDS011;34357;51.948;6.132;2023-07-24T11:17:37;12.02;;;8.63;;
48578;SDS011;34357;51.948;6.132;2023-07-24T11:20:08;9.03;;;8.23;;
48578;SDS011;34357;51.948;6.132;2023-07-24T11:22:37;9.93;;;8.93;;
48578;SDS011;34357;51.948;6.132;2023-07-24T11:25:04;10.63;;;8.05;;
48578;SDS011;34357;51.948;6.132;2023-07-24T11:27:31;10.38;;;8.45;;
48578;SDS011;34357;51.948;6.132;2023-07-24T11:29:57;10.05;;;8.27;;
48578;SDS011;34357;51.948;6.132;2023-07-24T11:32:23;9.35;;;8.18;;
48578;SDS011;34357;51.948;6.132;2023-07-24T11:34:49;10.63;;;8.18;;
48578;SDS011;34357;51.948;6.132;2023-07-24T11:37:16;8.68;;;6.72;;
48578;SDS011;34357;51.948;6.132;2023-07-24T11:39:54;9.10;;;8.18;;
48578;SDS011;34357;51.948;6.132;2023-07-24T11:42:24;9.30;;;8.25;;
48578;SDS011;34357;51.948;6.132;2023-07-24T11:44:51;10.18;;;8.25;;
48578;SDS011;34357;51.948;6.132;2023-07-24T11:47:17;10.25;;;8.18;;
48578;SDS011;34357;51.948;6.132;2023-07-24T11:49:43;8.65;;;7.72;;
48578;SDS011;34357;51.948;6.132;2023-07-24T11:52:13;8.90;;;8.00;;
48578;SDS011;34357;51.948;6.132;2023-07-24T11:54:39;8.65;;;7.15;;
48578;SDS011;34357;51.948;6.132;2023-07-24T11:57:14;10.05;;;7.65;;
48578;SDS011;34357;51.948;6.132;2023-07-24T11:59:44;9.40;;;7.57;;
48578;SDS011;34357;51.948;6.132;2023-07-24T12:02:10;8.95;;;7.15;;
48578;SDS011;34357;51.948;6.132;2023-07-24T12:04:37;9.40;;;6.95;;
48578;SDS011;34357;51.948;6.132;2023-07-24T12:07:09;8.13;;;7.03;;
48578;SDS011;34357;51.948;6.132;2023-07-24T12:09:35;9.30;;;7.13;;
48578;SDS011;34357;51.948;6.132;2023-07-24T12:12:00;9.35;;;6.80;;
48578;SDS011;34357;51.948;6.132;2023-07-24T12:14:29;8.88;;;7.57;;
48578;SDS011;34357;51.948;6.132;2023-07-24T12:17:01;8.18;;;7.32;;
48578;SDS011;34357;51.948;6.132;2023-07-24T12:19:28;8.38;;;7.18;;
48578;SDS011;34357;51.948;6.132;2023-07-24T12:21:54;10.30;;;7.68;;
48578;SDS011;34357;51.948;6.132;2023-07-24T12:24:20;12.32;;;8.10;;
48578;SDS011;34357;51.948;6.132;2023-07-24T12:26:45;9.70;;;7.82;;
48578;SDS011;34357;51.948;6.132;2023-07-24T12:29:11;8.90;;;7.00;;
48578;SDS011;34357;51.948;6.132;2023-07-24T12:31:37;8.77;;;6.72;;
48578;SDS011;34357;51.948;6.132;2023-07-24T12:34:02;9.60;;;6.90;;
48578;SDS011;34357;51.948;6.132;2023-07-24T12:36:28;10.20;;;7.03;;
48578;SDS011;34357;51.948;6.132;2023-07-24T12:38:54;10.57;;;6.50;;
48578;SDS011;34357;51.948;6.132;2023-07-24T12:41:19;9.23;;;7.10;;
48578;SDS011;34357;51.948;6.132;2023-07-24T12:43:45;11.25;;;7.07;;
48578;SDS011;34357;51.948;6.132;2023-07-24T12:46:11;8.13;;;6.75;;
48578;SDS011;34357;51.948;6.132;2023-07-24T12:48:36;10.65;;;7.50;;
48578;SDS011;34357;51.948;6.132;2023-07-24T12:51:03;12.50;;;8.68;;
48578;SDS011;34357;51.948;6.132;2023-07-24T12:53:28;12.48;;;8.45;;
48578;SDS011;34357;51.948;6.132;2023-07-24T12:55:54;10.95;;;7.25;;
48578;SDS011;34357;51.948;6.132;2023-07-24T12:58:20;10.57;;;7.60;;
48578;SDS011;34357;51.948;6.132;2023-07-24T13:00:46;10.48;;;7.15;;
48578;SDS011;34357;51.948;6.132;2023-07-24T13:03:12;9.45;;;6.50;;
48578;SDS011;34357;51.948;6.132;2023-07-24T13:05:38;10.60;;;6.88;;
48578;SDS011;34357;51.948;6.132;2023-07-24T13:08:04;10.60;;;7.00;;
48578;SDS011;34357;51.948;6.132;2023-07-24T13:10:29;8.93;;;6.25;;
48578;SDS011;34357;51.948;6.132;2023-07-24T13:12:56;10.05;;;6.35;;
48578;SDS011;34357;51.948;6.132;2023-07-24T13:15:22;9.57;;;5.97;;
48578;SDS011;34357;51.948;6.132;2023-07-24T13:17:48;11.07;;;5.55;;
48578;SDS011;34357;51.948;6.132;2023-07-24T13:20:16;8.10;;;5.80;;
48578;SDS011;34357;51.948;6.132;2023-07-24T13:22:42;9.90;;;5.60;;
48578;SDS011;34357;51.948;6.132;2023-07-24T13:25:11;12.65;;;6.75;;
48578;SDS011;34357;51.948;6.132;2023-07-24T13:27:37;9.52;;;5.45;;
48578;SDS011;34357;51.948;6.132;2023-07-24T13:30:03;8.35;;;5.32;;
48578;SDS011;34357;51.948;6.132;2023-07-24T13:32:29;8.77;;;4.80;;
48578;SDS011;34357;51.948;6.132;2023-07-24T13:34:55;12.15;;;4.38;;
48578;SDS011;34357;51.948;6.132;2023-07-24T13:37:22;7.53;;;4.28;;
48578;SDS011;34357;51.948;6.132;2023-07-24T13:39:50;9.35;;;5.07;;
48578;SDS011;34357;51.948;6.132;2023-07-24T13:42:16;8.05;;;4.05;;
48578;SDS011;34357;51.948;6.132;2023-07-24T13:44:42;7.65;;;4.38;;
48578;SDS011;34357;51.948;6.132;2023-07-24T13:47:07;9.50;;;4.60;;
48578;SDS011;34357;51.948;6.132;2023-07-24T13:49:33;6.10;;;3.70;;
48578;SDS011;34357;51.948;6.132;2023-07-24T13:51:59;6.35;;;3.72;;
48578;SDS011;34357;51.948;6.132;2023-07-24T13:54:25;8.75;;;3.78;;
48578;SDS011;34357;51.948;6.132;2023-07-24T13:56:50;7.60;;;3.65;;
48578;SDS011;34357;51.948;6.132;2023-07-24T13:59:16;8.32;;;4.10;;
48578;SDS011;34357;51.948;6.132;2023-07-24T14:01:42;10.00;;;3.80;;
48578;SDS011;34357;51.948;6.132;2023-07-24T14:04:08;7.32;;;4.47;;
48578;SDS011;34357;51.948;6.132;2023-07-24T14:06:34;5.57;;;3.60;;
48578;SDS011;34357;51.948;6.132;2023-07-24T14:08:59;9.18;;;4.65;;
48578;SDS011;34357;51.948;6.132;2023-07-24T14:11:25;7.97;;;5.10;;
48578;SDS011;34357;51.948;6.132;2023-07-24T14:13:53;8.80;;;4.78;;
48578;SDS011;34357;51.948;6.132;2023-07-24T14:16:18;8.85;;;4.47;;
48578;SDS011;34357;51.948;6.132;2023-07-24T14:18:44;7.28;;;4.35;;
48578;SDS011;34357;51.948;6.132;2023-07-24T14:21:10;7.63;;;4.63;;
48578;SDS011;34357;51.948;6.132;2023-07-24T14:23:35;8.82;;;4.00;;
48578;SDS011;34357;51.948;6.132;2023-07-24T14:26:01;6.50;;;3.88;;
48578;SDS011;34357;51.948;6.132;2023-07-24T14:28:27;9.52;;;3.30;;
48578;SDS011;34357;51.948;6.132;2023-07-24T14:30:53;7.80;;;3.65;;
48578;SDS011;34357;51.948;6.132;2023-07-24T14:33:19;6.22;;;3.50;;
48578;SDS011;34357;51.948;6.132;2023-07-24T14:35:44;8.98;;;3.80;;
48578;SDS011;34357;51.948;6.132;2023-07-24T14:38:10;11.30;;;3.95;;
48578;SDS011;34357;51.948;6.132;2023-07-24T14:40:36;6.28;;;3.92;;
48578;SDS011;34357;51.948;6.132;2023-07-24T14:43:02;6.90;;;3.63;;